ペトロパブロフスク・カムチャツキー の空港の天気 - METARとTAF

ペトロパブロフスク・カムチャツキー空港 ( UHPP / PKC ) - ロシア ペトロパブロフスク・カムチャツキー
飛行場実況気象(Metar)
観測時間10/22 23:00 MAGT (10/22 12:00 UTC)
風向・風速北 5m/s
視程10km以上
天気現象
なし
気温1℃
湿度69%
気圧1024hPa
METARUHPP 221200Z 35005MPS 9999 NSC 01/M04 Q1024 R34L/CLRD70 NOSIG RMK QFE765/1020
過去の天気等 Google飛行場航空写真 Wunderground天気予報

過去48時間のMETAR

飛行場予報(TAF)
発表時間: 10/22 21:36 MAGT (10/22 10:36 UTC)
予報対象時間: 22日23時 MAGT ~ 24日5時 MAGT
風向・風速北 3m/s 瞬間風速 12m/s
視程10km以上
なし
22日23時 MAGT ~ 23日8時 MAGT に一時的に
視程700m
天気現象
全天を覆う雲 鉛直視程 90m
TAF UHPP 221036Z 2212/2318 36003G12MPS 9999 NSC
TEMPO 2212/2221 0700 FG VV003